Time;durP1;ratioP1;P1;durP2;ratioP2;P2;SDS_P1;SDS_P2;PMS_P1;PMS_P2;Temp;Humidity;BMP_temperature;BMP_pressure;BME280_temperature;BME280_humidity;BME280_pressure;Samples;Min_cycle;Max_cycle;Signal;HPM_P1;HPM_P2
2021/06/11 00:01:34;;;;;;;7.17;2.30;;;16.70;99.90;;;;;;4974724;28;20600;-78
2021/06/11 00:03:59;;;;;;;7.60;2.90;;;16.50;99.90;;;;;;4974128;28;20457;-78
2021/06/11 00:06:25;;;;;;;10.53;2.37;;;16.40;99.90;;;;;;4974518;28;20434;-82
2021/06/11 00:08:51;;;;;;;6.43;2.63;;;16.50;99.90;;;;;;4973375;28;20180;-78
2021/06/11 00:11:16;;;;;;;5.53;2.60;;;16.40;99.90;;;;;;4974512;28;20266;-77
2021/06/11 00:13:42;;;;;;;3.43;2.20;;;16.30;99.90;;;;;;4956894;28;20298;-78
2021/06/11 00:16:10;;;;;;;4.73;2.50;;;16.30;99.90;;;;;;4974421;28;20180;-78
2021/06/11 00:18:36;;;;;;;8.87;2.50;;;16.30;99.90;;;;;;4974400;28;20188;-79
2021/06/11 00:21:02;;;;;;;3.77;2.50;;;16.30;99.90;;;;;;4974373;28;20442;-78
2021/06/11 00:23:27;;;;;;;4.87;2.37;;;16.20;99.90;;;;;;4972625;28;20475;-79
2021/06/11 00:25:53;;;;;;;3.37;2.33;;;16.20;99.90;;;;;;4974526;28;20416;-79
2021/06/11 00:28:21;;;;;;;6.30;2.97;;;16.30;99.90;;;;;;4974532;28;20248;-79
2021/06/11 00:30:47;;;;;;;3.67;2.43;;;16.20;99.90;;;;;;4974175;28;20176;-78
2021/06/11 00:33:12;;;;;;;3.57;2.27;;;16.20;99.90;;;;;;4972873;28;20407;-78
2021/06/11 00:35:38;;;;;;;3.77;2.47;;;16.10;99.90;;;;;;4974249;28;20184;-78
2021/06/11 00:38:04;;;;;;;7.57;2.50;;;16.20;99.90;;;;;;4972972;28;20649;-78
2021/06/11 00:40:31;;;;;;;5.90;2.90;;;16.20;99.90;;;;;;4974218;28;20943;-79
2021/06/11 00:43:00;;;;;;;6.37;3.13;;;16.10;99.90;;;;;;4972629;28;20398;-79
2021/06/11 00:45:25;;;;;;;2.70;2.23;;;16.30;99.90;;;;;;4973064;28;20776;-79
2021/06/11 00:47:54;;;;;;;3.47;2.57;;;16.10;99.90;;;;;;4974165;28;20424;-79
2021/06/11 00:50:23;;;;;;;4.80;2.47;;;16.10;99.90;;;;;;4975603;28;20395;-78
2021/06/11 00:52:56;;;;;;;4.07;2.60;;;16.00;99.90;;;;;;4976278;28;20402;-78
2021/06/11 00:55:22;;;;;;;3.70;2.40;;;16.00;99.90;;;;;;4977791;28;20414;-79
2021/06/11 00:57:48;;;;;;;4.40;3.30;;;16.00;99.90;;;;;;4976818;28;20401;-78
2021/06/11 01:00:15;;;;;;;5.00;2.43;;;15.90;99.90;;;;;;4976749;28;20401;-78
2021/06/11 01:02:41;;;;;;;4.60;3.50;;;15.90;99.90;;;;;;4977629;28;20398;-79
2021/06/11 01:05:08;;;;;;;2.80;2.50;;;15.80;99.90;;;;;;4976179;28;20478;-79
2021/06/11 01:07:37;;;;;;;5.83;2.80;;;15.80;99.90;;;;;;4977747;28;20191;-78
2021/06/11 01:10:04;;;;;;;5.27;3.67;;;15.80;99.90;;;;;;4976372;28;20481;-77
2021/06/11 01:12:31;;;;;;;4.67;3.37;;;15.80;99.90;;;;;;4977623;28;20427;-79
2021/06/11 01:14:57;;;;;;;5.90;2.77;;;15.90;99.90;;;;;;4977132;28;20454;-78
2021/06/11 01:17:23;;;;;;;3.63;3.30;;;15.80;99.90;;;;;;4980193;28;20502;-78
2021/06/11 01:19:50;;;;;;;6.00;2.77;;;15.70;99.90;;;;;;4960097;28;20565;-78
2021/06/11 01:22:34;;;;;;;5.87;2.67;;;15.60;99.90;;;;;;4977610;28;20393;-78
2021/06/11 01:25:10;;;;;;;3.80;2.60;;;15.60;99.90;;;;;;4977092;28;20461;-78
2021/06/11 01:27:38;;;;;;;7.30;3.23;;;15.60;99.90;;;;;;4977375;28;20389;-77
2021/06/11 01:30:20;;;;;;;6.73;3.20;;;15.60;99.90;;;;;;4977440;28;20466;-78
2021/06/11 01:32:48;;;;;;;10.63;3.83;;;15.60;99.90;;;;;;4977275;28;20388;-78
2021/06/11 01:35:17;;;;;;;3.93;3.37;;;15.60;99.90;;;;;;4975898;28;20414;-78
2021/06/11 01:37:43;;;;;;;4.57;4.07;;;15.60;99.90;;;;;;4977176;28;20390;-78
2021/06/11 01:40:11;;;;;;;4.33;3.30;;;15.60;99.90;;;;;;4977098;28;20911;-78
2021/06/11 01:42:39;;;;;;;5.00;3.40;;;15.60;99.90;;;;;;4977166;28;20407;-77
2021/06/11 01:45:09;;;;;;;3.80;3.40;;;15.60;99.90;;;;;;4976685;28;20471;-78
2021/06/11 01:47:55;;;;;;;5.53;3.73;;;15.50;99.90;;;;;;4977307;28;20517;-78
2021/06/11 01:50:24;;;;;;;8.23;3.67;;;15.50;99.90;;;;;;4975756;28;20802;-78
2021/06/11 01:52:53;;;;;;;4.57;4.17;;;15.50;99.90;;;;;;4976596;28;20394;-77
2021/06/11 01:55:20;;;;;;;5.90;4.03;;;15.50;99.90;;;;;;4975494;28;20983;-78
2021/06/11 01:57:46;;;;;;;7.67;5.10;;;15.40;99.90;;;;;;4976894;28;20411;-77
2021/06/11 02:00:13;;;;;;;6.07;4.60;;;15.40;99.90;;;;;;4976690;28;20435;-77
2021/06/11 02:02:41;;;;;;;6.23;5.30;;;15.40;99.90;;;;;;4959449;28;20782;-77
2021/06/11 02:05:08;;;;;;;9.73;5.13;;;15.40;99.90;;;;;;4976200;28;20473;-77
2021/06/11 02:07:35;;;;;;;10.63;5.60;;;15.40;99.90;;;;;;4976519;28;20391;-77
2021/06/11 02:10:04;;;;;;;7.93;5.37;;;15.40;99.90;;;;;;4976569;28;20416;-77
2021/06/11 02:12:30;;;;;;;10.23;5.63;;;15.40;99.90;;;;;;4976404;28;20465;-77
2021/06/11 02:14:58;;;;;;;7.10;5.73;;;15.30;99.90;;;;;;4974952;28;20440;-77
2021/06/11 02:17:24;;;;;;;7.50;4.53;;;15.20;99.90;;;;;;4976404;28;20736;-77
2021/06/11 02:19:52;;;;;;;7.53;5.10;;;15.20;99.90;;;;;;4976129;28;20465;-77
2021/06/11 02:22:18;;;;;;;7.33;3.97;;;15.10;99.90;;;;;;4976392;28;20426;-77
2021/06/11 02:24:44;;;;;;;4.70;3.93;;;15.10;99.90;;;;;;4975974;28;20528;-77
2021/06/11 02:27:12;;;;;;;5.10;4.60;;;15.10;99.90;;;;;;4976259;28;20407;-77
2021/06/11 02:29:37;;;;;;;8.10;4.60;;;15.10;99.90;;;;;;4975000;28;20872;-77
2021/06/11 02:32:05;;;;;;;8.73;5.13;;;15.00;99.90;;;;;;4976171;28;20426;-77
2021/06/11 02:34:31;;;;;;;7.97;5.93;;;15.00;99.90;;;;;;4975765;28;20410;-77
2021/06/11 02:36:58;;;;;;;7.60;5.20;;;15.00;99.90;;;;;;4976201;28;20786;-77
2021/06/11 02:39:23;;;;;;;6.07;5.37;;;15.10;99.90;;;;;;4976049;28;20793;-77
2021/06/11 02:41:54;;;;;;;8.23;5.80;;;15.00;99.90;;;;;;4975917;28;20419;-77
2021/06/11 02:44:23;;;;;;;7.80;5.20;;;15.00;99.90;;;;;;4975559;28;20212;-78
2021/06/11 02:46:59;;;;;;;10.37;5.40;;;15.00;99.90;;;;;;4975992;28;20415;-77
2021/06/11 02:49:50;;;;;;;8.40;5.70;;;15.00;99.90;;;;;;4975881;28;20761;-77
2021/06/11 02:52:21;;;;;;;6.23;5.20;;;15.00;99.90;;;;;;4975846;28;20374;-77
2021/06/11 02:54:47;;;;;;;8.17;5.43;;;15.00;99.90;;;;;;4975584;28;20413;-77
2021/06/11 02:57:20;;;;;;;8.13;5.33;;;14.90;99.90;;;;;;4974519;28;20427;-77
2021/06/11 02:59:59;;;;;;;7.40;5.50;;;14.80;99.90;;;;;;4975648;28;20499;-77
2021/06/11 03:02:35;;;;;;;9.20;6.37;;;14.80;99.90;;;;;;4975663;28;20389;-77
2021/06/11 03:05:01;;;;;;;8.80;6.73;;;14.90;99.90;;;;;;4975220;28;20862;-77
2021/06/11 03:07:31;;;;;;;7.30;6.60;;;14.80;99.90;;;;;;4974207;28;20783;-78
2021/06/11 03:10:02;;;;;;;14.00;6.93;;;14.80;99.90;;;;;;4974219;28;20431;-78
2021/06/11 03:12:30;;;;;;;6.90;6.20;;;14.80;99.90;;;;;;4975017;28;20835;-77
2021/06/11 03:14:55;;;;;;;8.87;7.30;;;14.80;99.90;;;;;;4975040;28;20439;-77
2021/06/11 03:17:28;;;;;;;7.63;6.70;;;14.80;99.90;;;;;;4975405;28;20519;-77
2021/06/11 03:19:57;;;;;;;10.00;6.70;;;14.80;99.90;;;;;;4973850;28;20203;-77
2021/06/11 03:22:29;;;;;;;8.33;6.40;;;14.70;99.90;;;;;;4975518;28;20926;-77
2021/06/11 03:25:51;;;;;;;10.37;5.97;;;14.70;99.90;;;;;;4974907;28;20467;-77
2021/06/11 03:28:21;;;;;;;8.70;6.80;;;14.80;99.90;;;;;;4956833;28;20458;-77
2021/06/11 03:30:51;;;;;;;7.70;6.90;;;14.80;99.90;;;;;;4973127;28;20442;-77
2021/06/11 03:33:20;;;;;;;9.00;7.43;;;14.80;99.90;;;;;;4973962;28;20832;-77
2021/06/11 03:35:51;;;;;;;12.60;7.97;;;14.70;99.90;;;;;;4974956;28;20401;-77
2021/06/11 03:38:22;;;;;;;10.83;9.10;;;14.70;99.90;;;;;;4974873;28;20406;-78
2021/06/11 03:40:49;;;;;;;9.87;8.00;;;14.70;99.90;;;;;;4974163;28;20779;-77
2021/06/11 03:43:15;;;;;;;12.03;8.30;;;14.70;99.90;;;;;;4974627;28;20484;-77
2021/06/11 03:45:42;;;;;;;15.53;8.73;;;14.70;99.90;;;;;;4974876;28;20462;-77
2021/06/11 03:48:10;;;;;;;10.93;9.03;;;14.70;99.90;;;;;;4974865;28;20390;-78
2021/06/11 03:50:38;;;;;;;12.10;9.33;;;14.80;99.90;;;;;;4975060;28;20382;-77
2021/06/11 03:53:05;;;;;;;15.83;9.43;;;14.80;99.90;;;;;;4973265;28;20785;-77
2021/06/11 03:55:45;;;;;;;9.87;8.87;;;14.80;99.90;;;;;;4974658;28;20914;-77
2021/06/11 03:58:38;;;;;;;12.97;9.33;;;14.80;99.90;;;;;;4974715;28;20418;-76
2021/06/11 04:01:07;;;;;;;12.23;9.17;;;14.90;99.90;;;;;;4971124;28;20420;-77
2021/06/11 04:03:32;;;;;;;13.40;10.57;;;14.80;99.90;;;;;;4972858;28;20472;-77
2021/06/11 04:06:06;;;;;;;15.30;11.67;;;14.70;99.90;;;;;;4973373;28;20522;-77
2021/06/11 04:08:34;;;;;;;12.70;10.30;;;14.80;99.90;;;;;;4974606;28;20226;-78
2021/06/11 04:11:01;;;;;;;17.70;10.97;;;14.80;99.90;;;;;;4974675;28;20419;-77
2021/06/11 04:13:51;;;;;;;19.83;10.70;;;14.80;99.90;;;;;;4957090;28;20774;-78
2021/06/11 04:16:19;;;;;;;19.70;12.90;;;14.80;99.90;;;;;;4973191;28;20959;-77
2021/06/11 04:18:46;;;;;;;13.70;11.97;;;14.90;99.90;;;;;;4973152;28;20772;-77
2021/06/11 04:21:23;;;;;;;17.37;10.80;;;15.00;99.90;;;;;;4974326;28;20418;-78
2021/06/11 04:23:51;;;;;;;16.40;12.80;;;15.00;99.90;;;;;;4973971;28;20458;-78
2021/06/11 04:26:21;;;;;;;16.80;14.57;;;15.00;99.90;;;;;;4977535;28;20503;-78
2021/06/11 04:28:47;;;;;;;16.77;12.93;;;15.10;99.90;;;;;;4977133;28;20837;-78
2021/06/11 04:31:13;;;;;;;17.00;13.03;;;15.20;99.90;;;;;;4978379;28;20407;-78
2021/06/11 04:33:39;;;;;;;19.10;13.33;;;15.30;99.90;;;;;;4976707;28;20501;-78
2021/06/11 04:36:05;;;;;;;20.50;14.87;;;15.30;99.90;;;;;;4977165;28;20180;-78
2021/06/11 04:39:01;;;;;;;18.20;14.23;;;15.30;99.90;;;;;;4978218;28;20762;-78
2021/06/11 04:41:29;;;;;;;21.60;16.63;;;15.40;99.90;;;;;;4977966;28;20514;-79
2021/06/11 04:43:59;;;;;;;19.97;17.00;;;15.50;99.90;;;;;;4977917;28;20445;-77
2021/06/11 04:46:25;;;;;;;27.80;20.87;;;15.50;99.90;;;;;;4978308;28;20431;-78
2021/06/11 04:48:51;;;;;;;22.53;15.50;;;15.70;99.90;;;;;;4978267;28;20423;-77
2021/06/11 04:51:17;;;;;;;21.80;17.43;;;15.70;99.90;;;;;;4978241;28;20422;-77
2021/06/11 04:53:43;;;;;;;21.60;19.30;;;15.70;99.90;;;;;;4978077;28;20777;-77
2021/06/11 04:56:08;;;;;;;24.43;19.93;;;15.80;99.90;;;;;;4978845;28;20242;-78
2021/06/11 04:58:40;;;;;;;22.73;18.60;;;15.90;99.90;;;;;;4978546;28;20279;-77
2021/06/11 05:01:07;;;;;;;23.03;18.63;;;16.10;99.90;;;;;;4977997;28;20190;-78
2021/06/11 05:03:33;;;;;;;25.00;20.33;;;16.10;99.90;;;;;;4977368;28;20471;-77
2021/06/11 05:06:01;;;;;;;22.33;18.30;;;16.20;99.90;;;;;;4977860;28;20903;-77
2021/06/11 05:08:26;;;;;;;25.40;17.80;;;16.30;99.90;;;;;;4976911;28;20409;-78
2021/06/11 05:10:53;;;;;;;28.03;20.70;;;16.40;99.90;;;;;;4977723;28;20419;-77
2021/06/11 05:13:18;;;;;;;21.40;19.10;;;16.50;99.90;;;;;;4977281;28;20200;-76
2021/06/11 05:15:44;;;;;;;21.03;18.77;;;16.60;99.90;;;;;;4976357;28;20425;-78
2021/06/11 05:18:10;;;;;;;22.20;18.70;;;16.60;99.90;;;;;;4976743;28;20255;-77
2021/06/11 05:20:37;;;;;;;21.77;17.53;;;16.70;99.90;;;;;;4977695;28;20657;-77
2021/06/11 05:23:03;;;;;;;20.67;18.43;;;16.80;99.90;;;;;;4975920;28;21088;-78
2021/06/11 05:25:29;;;;;;;22.87;18.43;;;16.90;99.90;;;;;;4976055;28;20483;-77
2021/06/11 05:27:55;;;;;;;21.27;18.93;;;17.00;99.90;;;;;;4977316;28;20748;-76
2021/06/11 05:30:20;;;;;;;19.90;16.70;;;17.00;99.90;;;;;;4976076;28;20238;-77
2021/06/11 05:32:47;;;;;;;21.47;17.93;;;16.90;99.90;;;;;;4959731;28;20555;-77
2021/06/11 05:35:13;;;;;;;19.40;16.50;;;17.10;99.90;;;;;;4977276;28;20207;-77
2021/06/11 05:37:38;;;;;;;19.03;16.30;;;17.10;99.90;;;;;;4976823;28;20482;-77
2021/06/11 05:40:05;;;;;;;20.63;17.57;;;17.10;99.90;;;;;;4975903;28;20398;-77
2021/06/11 05:42:31;;;;;;;18.40;16.53;;;17.10;99.90;;;;;;4977130;28;20208;-77
2021/06/11 05:44:57;;;;;;;19.33;16.77;;;17.20;99.90;;;;;;4977022;28;20522;-77
2021/06/11 05:47:22;;;;;;;22.23;16.77;;;17.30;99.90;;;;;;4977064;28;20447;-78
2021/06/11 05:49:48;;;;;;;17.03;14.10;;;17.40;99.90;;;;;;4977183;28;20193;-77
2021/06/11 05:52:14;;;;;;;23.83;16.37;;;17.40;99.90;;;;;;4977062;28;20192;-78
2021/06/11 05:54:39;;;;;;;15.33;13.73;;;17.40;99.90;;;;;;4976527;28;20282;-77
2021/06/11 05:57:05;;;;;;;20.97;15.67;;;17.50;99.90;;;;;;4976834;28;20698;-78
2021/06/11 05:59:31;;;;;;;17.80;15.53;;;17.60;99.90;;;;;;4976764;28;20669;-76
2021/06/11 06:01:56;;;;;;;21.57;15.33;;;17.60;99.90;;;;;;4976825;28;20599;-77
2021/06/11 06:04:22;;;;;;;24.10;17.60;;;17.80;99.90;;;;;;4976309;28;20610;-79
2021/06/11 06:06:47;;;;;;;21.00;17.47;;;17.80;99.90;;;;;;4975511;28;20176;-78
2021/06/11 06:09:13;;;;;;;19.20;16.80;;;18.00;99.90;;;;;;4976766;28;20168;-77
2021/06/11 06:11:39;;;;;;;22.60;17.87;;;18.10;99.90;;;;;;4976557;28;20191;-78
2021/06/11 06:14:04;;;;;;;19.13;16.67;;;18.30;99.90;;;;;;4976439;28;20204;-77
2021/06/11 06:16:30;;;;;;;18.50;15.47;;;18.30;99.90;;;;;;4976551;28;20211;-78
2021/06/11 06:18:56;;;;;;;22.50;17.67;;;18.20;99.90;;;;;;4976468;28;20394;-78
2021/06/11 06:21:25;;;;;;;22.70;15.90;;;18.30;99.90;;;;;;4976241;28;20466;-78
2021/06/11 06:23:51;;;;;;;21.53;15.37;;;18.40;99.90;;;;;;4976035;28;20266;-75
2021/06/11 06:26:16;;;;;;;21.50;16.33;;;18.50;99.90;;;;;;4976449;28;20918;-75
2021/06/11 06:28:42;;;;;;;17.93;15.57;;;18.50;99.90;;;;;;4976361;28;20181;-75
2021/06/11 06:31:08;;;;;;;17.17;14.87;;;18.50;99.90;;;;;;4976289;28;20180;-75
2021/06/11 06:33:34;;;;;;;21.63;15.67;;;18.60;99.90;;;;;;4976524;28;20235;-75
2021/06/11 06:35:59;;;;;;;19.10;16.03;;;18.60;99.90;;;;;;4980605;28;20995;-75
2021/06/11 06:38:26;;;;;;;19.73;16.17;;;18.70;99.90;;;;;;4976181;28;20649;-75
2021/06/11 06:40:59;;;;;;;18.50;16.07;;;18.70;99.90;;;;;;4976349;28;20211;-74
2021/06/11 06:43:24;;;;;;;26.23;17.47;;;18.80;99.90;;;;;;4976070;28;20421;-76
2021/06/11 06:45:50;;;;;;;20.67;17.40;;;18.80;99.90;;;;;;4975867;28;20908;-75
2021/06/11 06:48:16;;;;;;;17.83;14.90;;;18.90;99.90;;;;;;4975082;28;20251;-75
2021/06/11 06:50:41;;;;;;;18.50;15.50;;;19.00;99.90;;;;;;4975996;28;20212;-74
2021/06/11 06:53:10;;;;;;;24.23;15.70;;;19.00;99.90;;;;;;4975745;28;20615;-75
2021/06/11 06:55:36;;;;;;;18.53;15.50;;;18.90;99.90;;;;;;4975883;28;20195;-75
2021/06/11 06:58:01;;;;;;;19.67;16.57;;;19.10;99.90;;;;;;4976143;28;20423;-74
2021/06/11 07:00:27;;;;;;;21.40;17.90;;;19.40;99.90;;;;;;4975939;28;20417;-74
2021/06/11 07:02:54;;;;;;;22.13;16.43;;;19.50;99.90;;;;;;4975409;28;20426;-75
2021/06/11 07:05:19;;;;;;;18.00;15.40;;;19.60;99.90;;;;;;4975825;28;20616;-74
2021/06/11 07:07:45;;;;;;;20.30;17.00;;;19.70;99.90;;;;;;5006747;28;20409;-74
2021/06/11 07:10:11;;;;;;;22.43;16.27;;;19.80;99.90;;;;;;4975435;28;20184;-74
2021/06/11 07:12:45;;;;;;;23.50;15.87;;;19.90;99.90;;;;;;4975390;28;20181;-75
2021/06/11 07:15:11;;;;;;;21.93;16.77;;;20.00;99.90;;;;;;4975573;28;20235;-75
2021/06/11 07:17:38;;;;;;;25.67;15.10;;;20.10;99.90;;;;;;4975416;28;20462;-76
2021/06/11 07:20:05;;;;;;;21.40;15.70;;;20.20;99.90;;;;;;4975214;28;20270;-75
2021/06/11 07:22:30;;;;;;;25.10;16.27;;;20.30;99.90;;;;;;4974096;28;20955;-75
2021/06/11 07:24:56;;;;;;;18.37;15.40;;;20.30;99.90;;;;;;4974938;28;20471;-75
2021/06/11 07:27:22;;;;;;;19.60;15.67;;;20.60;99.90;;;;;;4975176;28;20187;-74
2021/06/11 07:29:50;;;;;;;20.47;13.57;;;20.60;99.90;;;;;;4975109;28;20512;-74
2021/06/11 07:32:17;;;;;;;25.47;15.17;;;20.80;99.90;;;;;;4973542;28;20267;-74
2021/06/11 07:34:43;;;;;;;24.80;17.20;;;21.00;99.90;;;;;;4965647;28;20486;-74
2021/06/11 07:37:09;;;;;;;20.20;16.57;;;20.80;99.90;;;;;;4964830;28;20483;-74
2021/06/11 07:39:35;;;;;;;27.43;14.87;;;20.90;99.90;;;;;;4964566;28;20436;-74
2021/06/11 07:42:01;;;;;;;17.13;14.70;;;21.10;99.90;;;;;;4964777;28;20428;-74
2021/06/11 07:44:27;;;;;;;16.27;14.33;;;21.10;99.90;;;;;;4955825;28;20244;-74
2021/06/11 07:46:53;;;;;;;15.77;14.10;;;21.30;99.90;;;;;;4955661;28;20386;-74
2021/06/11 07:49:18;;;;;;;24.17;14.97;;;21.30;99.90;;;;;;4955594;28;20412;-75
2021/06/11 07:51:44;;;;;;;16.23;14.57;;;21.40;99.90;;;;;;4955732;28;20635;-74
2021/06/11 07:54:10;;;;;;;18.00;14.13;;;21.10;99.90;;;;;;4955234;28;20336;-74
2021/06/11 07:56:37;;;;;;;19.33;14.07;;;21.40;99.90;;;;;;4955441;28;20181;-74
2021/06/11 07:59:03;;;;;;;15.90;12.70;;;21.80;99.90;;;;;;4955273;28;20478;-74
2021/06/11 08:01:31;;;;;;;18.60;14.03;;;21.90;99.90;;;;;;4955488;28;20772;-74
2021/06/11 08:03:57;;;;;;;15.80;12.80;;;22.20;99.90;;;;;;4958072;28;20473;-75
2021/06/11 08:06:22;;;;;;;15.90;13.63;;;22.40;99.90;;;;;;4971379;28;20424;-75
2021/06/11 08:08:48;;;;;;;18.20;13.20;;;22.40;99.90;;;;;;4962686;28;20614;-74
2021/06/11 08:11:14;;;;;;;14.70;13.20;;;22.00;99.90;;;;;;4971931;28;20579;-74
2021/06/11 08:13:39;;;;;;;16.67;13.17;;;21.70;99.90;;;;;;4973892;28;20239;-75
2021/06/11 08:16:05;;;;;;;15.33;11.80;;;22.20;99.90;;;;;;4974588;28;20188;-75
2021/06/11 08:18:31;;;;;;;13.37;11.80;;;22.50;99.90;;;;;;4974610;28;20180;-75
2021/06/11 08:20:56;;;;;;;17.60;12.70;;;22.70;99.90;;;;;;4974503;28;20603;-75
2021/06/11 08:23:22;;;;;;;13.00;11.80;;;23.00;99.90;;;;;;4974153;28;20695;-74
2021/06/11 08:25:48;;;;;;;15.33;12.03;;;23.10;99.90;;;;;;4974506;28;20222;-75
2021/06/11 08:28:13;;;;;;;13.17;10.80;;;23.20;99.90;;;;;;4974411;28;20208;-75
2021/06/11 08:30:39;;;;;;;16.73;11.73;;;23.60;99.90;;;;;;4973222;28;20182;-75
2021/06/11 08:33:06;;;;;;;15.70;10.57;;;23.80;99.90;;;;;;4974133;28;20242;-74
2021/06/11 08:35:32;;;;;;;13.90;12.67;;;23.80;99.90;;;;;;4974313;28;20192;-74
2021/06/11 08:37:58;;;;;;;13.27;11.97;;;23.60;99.90;;;;;;4974274;28;20437;-74
2021/06/11 08:40:26;;;;;;;12.90;11.63;;;23.70;99.90;;;;;;4974526;28;20423;-75
2021/06/11 08:42:52;;;;;;;13.70;10.70;;;24.20;99.90;;;;;;4973977;28;20422;-74
2021/06/11 08:45:18;;;;;;;14.13;10.70;;;24.40;99.90;;;;;;4974059;28;20474;-76
2021/06/11 08:47:48;;;;;;;12.03;10.70;;;23.70;99.90;;;;;;4974196;28;20412;-76
2021/06/11 08:50:17;;;;;;;12.20;11.00;;;24.30;99.90;;;;;;4974358;28;20415;-76
2021/06/11 08:52:43;;;;;;;10.57;9.57;;;24.50;99.90;;;;;;4974146;28;20426;-77
2021/06/11 08:55:09;;;;;;;14.30;12.03;;;25.10;99.90;;;;;;4974182;28;20526;-76
2021/06/11 08:57:35;;;;;;;14.00;12.43;;;24.80;99.90;;;;;;4974178;28;20451;-76
2021/06/11 09:00:01;;;;;;;14.57;10.47;;;24.70;99.90;;;;;;4974191;28;20446;-76
2021/06/11 09:02:26;;;;;;;13.80;10.80;;;24.80;99.90;;;;;;4974182;28;20263;-76
2021/06/11 09:04:55;;;;;;;15.43;11.57;;;24.90;99.90;;;;;;4972453;28;20303;-76
2021/06/11 09:07:25;;;;;;;13.30;11.70;;;25.30;99.90;;;;;;4974244;28;20180;-75
2021/06/11 09:09:53;;;;;;;13.60;12.27;;;24.90;99.90;;;;;;4974171;28;20499;-76
2021/06/11 09:12:38;;;;;;;13.27;11.27;;;24.90;99.90;;;;;;4976990;28;20507;-76
2021/06/11 09:15:08;;;;;;;16.70;11.50;;;25.40;99.90;;;;;;4977352;28;20431;-76
2021/06/11 09:17:49;;;;;;;12.13;10.93;;;25.50;99.90;;;;;;4977609;28;20510;-76
2021/06/11 09:20:40;;;;;;;12.30;11.03;;;25.30;99.90;;;;;;4977540;28;20438;-76
2021/06/11 09:23:07;;;;;;;13.83;10.63;;;25.60;99.90;;;;;;4977240;28;20794;-76
2021/06/11 09:25:35;;;;;;;12.97;11.07;;;26.00;99.90;;;;;;4977258;28;20843;-76
2021/06/11 09:28:10;;;;;;;16.97;10.10;;;25.40;99.90;;;;;;4977415;28;20439;-76
2021/06/11 09:30:38;;;;;;;13.90;12.57;;;26.30;99.90;;;;;;4977503;28;20479;-75
2021/06/11 09:33:11;;;;;;;12.10;10.87;;;26.20;99.90;;;;;;4977007;28;20422;-76
2021/06/11 09:35:39;;;;;;;15.37;12.10;;;26.40;99.90;;;;;;4977155;28;20412;-76
2021/06/11 09:38:07;;;;;;;14.40;13.00;;;25.40;99.90;;;;;;4977238;28;20419;-76
2021/06/11 09:40:33;;;;;;;13.60;11.57;;;25.10;99.90;;;;;;4977169;28;20435;-76
2021/06/11 09:43:02;;;;;;;12.63;11.30;;;25.70;99.90;;;;;;4980125;28;20416;-76
2021/06/11 09:45:29;;;;;;;14.23;12.80;;;25.70;99.90;;;;;;4976864;28;20674;-76
2021/06/11 09:47:54;;;;;;;15.27;12.73;;;26.00;99.90;;;;;;4977236;28;20782;-76
2021/06/11 09:50:30;;;;;;;16.27;10.97;;;26.10;99.90;;;;;;4977239;28;20419;-76
2021/06/11 09:53:05;;;;;;;14.73;12.10;;;26.00;99.90;;;;;;4976777;28;20168;-76
2021/06/11 09:55:47;;;;;;;13.80;12.50;;;25.50;99.90;;;;;;4977014;28;20474;-76
2021/06/11 09:58:32;;;;;;;14.07;11.93;;;26.70;99.90;;;;;;4976988;28;20427;-76
2021/06/11 10:01:00;;;;;;;12.10;10.60;;;26.00;99.90;;;;;;4975691;28;20435;-76
2021/06/11 10:03:28;;;;;;;13.93;12.40;;;26.30;99.90;;;;;;4976316;28;20510;-76
2021/06/11 10:06:00;;;;;;;12.87;11.57;;;26.70;99.90;;;;;;4976795;28;20777;-76
2021/06/11 10:08:25;;;;;;;14.00;11.03;;;26.10;99.90;;;;;;4976841;28;20869;-76
2021/06/11 10:10:59;;;;;;;13.90;12.40;;;26.30;99.90;;;;;;4976647;28;20446;-76
2021/06/11 10:13:25;;;;;;;13.47;12.17;;;26.00;99.90;;;;;;4976172;28;20199;-76
2021/06/11 10:15:54;;;;;;;12.57;10.13;;;25.90;99.90;;;;;;4976550;28;20455;-75
2021/06/11 10:18:20;;;;;;;13.20;10.00;;;26.00;99.90;;;;;;4976592;28;20439;-75
2021/06/11 10:20:46;;;;;;;15.83;12.03;;;25.60;99.90;;;;;;4976439;28;20439;-75
2021/06/11 10:23:18;;;;;;;12.10;10.90;;;26.30;99.90;;;;;;4974770;28;20416;-76
2021/06/11 10:25:46;;;;;;;14.80;12.43;;;27.10;99.90;;;;;;4976450;28;20443;-75
2021/06/11 10:28:17;;;;;;;16.10;13.83;;;26.40;99.90;;;;;;4976445;28;20412;-75
2021/06/11 10:30:44;;;;;;;12.47;10.87;;;26.00;99.90;;;;;;4975221;28;20759;-75
2021/06/11 10:33:10;;;;;;;10.03;9.13;;;26.00;99.90;;;;;;4975866;28;20432;-76
2021/06/11 10:35:41;;;;;;;10.57;9.47;;;26.70;99.90;;;;;;4976099;28;20756;-75
2021/06/11 10:38:12;;;;;;;9.13;8.20;;;26.20;99.90;;;;;;4976445;28;20443;-75
2021/06/11 10:40:41;;;;;;;9.30;8.40;;;25.50;99.90;;;;;;4976128;28;20403;-75
2021/06/11 10:43:30;;;;;;;6.53;5.70;;;26.00;99.90;;;;;;4976002;28;20416;-75
2021/06/11 10:45:57;;;;;;;5.47;4.97;;;27.20;99.90;;;;;;4976183;28;20396;-74
2021/06/11 10:48:24;;;;;;;5.30;4.70;;;27.20;99.90;;;;;;4976073;28;20743;-74
2021/06/11 10:50:50;;;;;;;6.63;5.90;;;27.60;99.90;;;;;;4975949;28;20472;-74
2021/06/11 10:53:28;;;;;;;8.30;6.00;;;27.80;99.90;;;;;;4975489;28;20467;-75
2021/06/11 10:56:15;;;;;;;5.50;4.93;;;27.80;99.90;;;;;;4975843;28;20495;-75
2021/06/11 10:58:45;;;;;;;7.43;6.13;;;28.40;99.90;;;;;;4975896;28;20400;-75
2021/06/11 11:01:21;;;;;;;7.00;6.30;;;28.30;99.90;;;;;;4975950;28;20408;-75
2021/06/11 11:03:47;;;;;;;4.70;4.30;;;28.10;99.90;;;;;;4975167;28;20519;-75
2021/06/11 11:06:33;;;;;;;6.53;4.80;;;27.70;99.90;;;;;;4974805;28;20821;-75
2021/06/11 11:09:03;;;;;;;11.23;7.57;;;27.80;99.90;;;;;;4975970;28;20204;-75
2021/06/11 11:11:32;;;;;;;5.73;5.03;;;27.80;99.90;;;;;;4974297;28;20913;-75
2021/06/11 11:13:58;;;;;;;8.80;5.77;;;28.50;99.90;;;;;;4975324;28;20470;-75
2021/06/11 11:16:29;;;;;;;5.87;5.37;;;28.60;99.90;;;;;;4975469;28;20444;-75
2021/06/11 11:18:55;;;;;;;7.73;7.03;;;27.90;99.90;;;;;;4974301;28;20840;-75
2021/06/11 11:21:55;;;;;;;8.20;6.60;;;27.30;99.90;;;;;;4975205;28;20523;-75
2021/06/11 11:24:20;;;;;;;6.53;5.53;;;28.00;99.90;;;;;;4974791;28;20471;-75
2021/06/11 11:26:48;;;;;;;9.63;6.43;;;28.40;99.90;;;;;;4975238;28;20419;-75
2021/06/11 11:29:17;;;;;;;6.47;5.87;;;28.10;99.90;;;;;;4975388;28;20207;-75
2021/06/11 11:31:45;;;;;;;6.30;5.70;;;27.60;99.90;;;;;;4975151;28;20762;-76
2021/06/11 11:34:11;;;;;;;8.50;7.00;;;27.10;99.90;;;;;;4974410;28;20436;-75
2021/06/11 11:36:37;;;;;;;6.77;6.07;;;27.60;99.90;;;;;;4975008;28;20988;-76
2021/06/11 11:39:06;;;;;;;6.87;6.27;;;28.10;99.90;;;;;;4975091;28;20657;-77
2021/06/11 11:41:32;;;;;;;10.57;5.80;;;28.40;99.90;;;;;;4973640;28;20434;-75
2021/06/11 11:43:58;;;;;;;8.00;5.83;;;28.90;99.90;;;;;;4974386;28;20486;-76
2021/06/11 11:46:24;;;;;;;11.67;7.77;;;29.00;99.90;;;;;;4974976;28;20416;-76
2021/06/11 11:48:49;;;;;;;11.90;5.80;;;28.50;99.90;;;;;;4974978;28;20637;-76
2021/06/11 11:51:17;;;;;;;7.53;6.70;;;28.70;99.90;;;;;;4974763;28;20307;-76
2021/06/11 11:53:42;;;;;;;9.97;6.60;;;28.50;99.90;;;;;;4974351;28;20200;-77
2021/06/11 11:56:08;;;;;;;7.30;6.70;;;29.00;99.90;;;;;;4974643;28;20470;-76
2021/06/11 11:58:34;;;;;;;8.40;6.23;;;29.10;99.90;;;;;;4973867;28;20552;-77
2021/06/11 12:00:59;;;;;;;8.50;5.70;;;29.40;99.90;;;;;;4974771;28;20740;-76
2021/06/11 12:03:25;;;;;;;8.13;5.90;;;29.80;99.90;;;;;;4974516;28;20774;-76
2021/06/11 12:05:51;;;;;;;6.57;4.80;;;29.40;99.90;;;;;;4974755;28;20544;-77
2021/06/11 12:08:16;;;;;;;6.23;4.80;;;30.10;99.90;;;;;;4974536;28;20180;-78
2021/06/11 12:10:42;;;;;;;8.30;5.37;;;30.20;99.90;;;;;;4974546;28;20259;-77
2021/06/11 12:13:08;;;;;;;6.50;5.90;;;29.70;99.90;;;;;;4974255;28;20234;-77
2021/06/11 12:15:34;;;;;;;9.10;6.10;;;30.00;99.90;;;;;;4973225;28;20431;-77
2021/06/11 12:18:00;;;;;;;8.07;5.37;;;29.90;99.90;;;;;;4973327;28;20262;-79
2021/06/11 12:20:30;;;;;;;8.87;7.13;;;29.60;99.90;;;;;;4974128;28;20203;-77
2021/06/11 12:22:56;;;;;;;6.10;5.50;;;29.20;99.90;;;;;;4974382;28;20180;-77
2021/06/11 12:25:22;;;;;;;6.23;5.60;;;30.30;99.90;;;;;;4974324;28;20471;-77
2021/06/11 12:27:48;;;;;;;7.87;5.47;;;29.90;99.90;;;;;;4973137;28;20438;-77
2021/06/11 12:30:14;;;;;;;6.00;4.43;;;30.30;99.90;;;;;;4974303;28;20618;-76
2021/06/11 12:32:39;;;;;;;5.73;5.23;;;29.90;99.90;;;;;;4974325;28;20610;-76
2021/06/11 12:35:05;;;;;;;10.53;6.77;;;29.70;99.90;;;;;;4974067;28;20508;-78
2021/06/11 12:37:31;;;;;;;5.40;4.80;;;29.30;99.90;;;;;;4974250;28;20180;-77
2021/06/11 12:39:57;;;;;;;6.40;4.97;;;29.90;99.90;;;;;;4974232;28;20434;-77
2021/06/11 12:42:30;;;;;;;6.20;5.07;;;30.30;99.90;;;;;;4974034;28;20251;-79